sensor_id;sensor_type;location;lat;lon;timestamp;pressure;altitude;pressure_sealevel;temperature;humidity
10474;BME280;5284;50.446;7.904;2023-06-10T00:01:27;98264.38;;;18.60;84.94
10474;BME280;5284;50.446;7.904;2023-06-10T00:06:32;98262.06;;;18.57;85.38
10474;BME280;5284;50.446;7.904;2023-06-10T00:11:37;98264.00;;;18.48;88.38
10474;BME280;5284;50.446;7.904;2023-06-10T00:16:42;98264.47;;;18.38;89.07
10474;BME280;5284;50.446;7.904;2023-06-10T00:21:47;98263.63;;;18.23;91.49
10474;BME280;5284;50.446;7.904;2023-06-10T00:26:50;98252.44;;;18.11;90.02
10474;BME280;5284;50.446;7.904;2023-06-10T00:31:56;98259.06;;;17.86;90.71
10474;BME280;5284;50.446;7.904;2023-06-10T00:37:00;98252.81;;;17.71;90.70
10474;BME280;5284;50.446;7.904;2023-06-10T00:42:03;98252.56;;;17.58;91.29
10474;BME280;5284;50.446;7.904;2023-06-10T00:47:11;98263.97;;;17.46;92.50
10474;BME280;5284;50.446;7.904;2023-06-10T00:52:14;98259.84;;;17.35;94.20
10474;BME280;5284;50.446;7.904;2023-06-10T00:57:19;98266.97;;;17.20;94.33
10474;BME280;5284;50.446;7.904;2023-06-10T01:02:23;98260.84;;;17.04;94.26
10474;BME280;5284;50.446;7.904;2023-06-10T01:07:33;98262.47;;;16.83;95.33
10474;BME280;5284;50.446;7.904;2023-06-10T01:12:41;98265.69;;;16.78;95.42
10474;BME280;5284;50.446;7.904;2023-06-10T01:17:58;98268.72;;;16.45;97.90
10474;BME280;5284;50.446;7.904;2023-06-10T01:23:06;98270.38;;;16.46;99.59
10474;BME280;5284;50.446;7.904;2023-06-10T01:28:13;98272.25;;;16.29;100.00
10474;BME280;5284;50.446;7.904;2023-06-10T01:33:21;98275.44;;;16.25;100.00
10474;BME280;5284;50.446;7.904;2023-06-10T01:38:33;98277.50;;;16.15;100.00
10474;BME280;5284;50.446;7.904;2023-06-10T01:43:39;98267.09;;;15.96;100.00
10474;BME280;5284;50.446;7.904;2023-06-10T01:48:42;98277.88;;;15.88;100.00
10474;BME280;5284;50.446;7.904;2023-06-10T01:53:46;98273.19;;;15.74;100.00
10474;BME280;5284;50.446;7.904;2023-06-10T01:58:49;98273.19;;;15.66;100.00
10474;BME280;5284;50.446;7.904;2023-06-10T02:03:52;98272.50;;;15.56;100.00
10474;BME280;5284;50.446;7.904;2023-06-10T02:08:56;98276.22;;;15.47;100.00
10474;BME280;5284;50.446;7.904;2023-06-10T02:14:01;98275.88;;;15.34;100.00
10474;BME280;5284;50.446;7.904;2023-06-10T02:19:05;98281.59;;;15.31;100.00
10474;BME280;5284;50.446;7.904;2023-06-10T02:24:10;98271.28;;;15.19;100.00
10474;BME280;5284;50.446;7.904;2023-06-10T02:29:14;98279.31;;;15.11;100.00
10474;BME280;5284;50.446;7.904;2023-06-10T02:34:16;98288.56;;;15.08;100.00
10474;BME280;5284;50.446;7.904;2023-06-10T02:39:22;98287.53;;;15.01;100.00
10474;BME280;5284;50.446;7.904;2023-06-10T02:44:25;98291.03;;;14.94;100.00
10474;BME280;5284;50.446;7.904;2023-06-10T02:49:29;98290.00;;;14.87;100.00
10474;BME280;5284;50.446;7.904;2023-06-10T02:54:34;98286.97;;;14.82;100.00
10474;BME280;5284;50.446;7.904;2023-06-10T02:59:40;98296.34;;;14.78;100.00
10474;BME280;5284;50.446;7.904;2023-06-10T03:04:43;98299.16;;;14.68;100.00
10474;BME280;5284;50.446;7.904;2023-06-10T03:09:52;98288.09;;;14.63;100.00
10474;BME280;5284;50.446;7.904;2023-06-10T03:14:55;98291.25;;;14.59;100.00
10474;BME280;5284;50.446;7.904;2023-06-10T03:19:57;98293.91;;;14.51;100.00
10474;BME280;5284;50.446;7.904;2023-06-10T03:25:02;98295.38;;;14.45;100.00
10474;BME280;5284;50.446;7.904;2023-06-10T03:30:06;98299.06;;;14.44;100.00
10474;BME280;5284;50.446;7.904;2023-06-10T03:35:11;98302.03;;;14.33;100.00
10474;BME280;5284;50.446;7.904;2023-06-10T03:40:17;98304.88;;;14.40;100.00
10474;BME280;5284;50.446;7.904;2023-06-10T03:45:22;98307.91;;;14.37;100.00
10474;BME280;5284;50.446;7.904;2023-06-10T03:50:26;98308.06;;;14.35;100.00
10474;BME280;5284;50.446;7.904;2023-06-10T03:55:30;98297.53;;;14.42;100.00
10474;BME280;5284;50.446;7.904;2023-06-10T04:00:35;98307.25;;;14.43;100.00
10474;BME280;5284;50.446;7.904;2023-06-10T04:05:43;98311.16;;;14.48;100.00
10474;BME280;5284;50.446;7.904;2023-06-10T04:10:47;98308.34;;;14.58;100.00
10474;BME280;5284;50.446;7.904;2023-06-10T04:15:50;98318.28;;;14.65;100.00
10474;BME280;5284;50.446;7.904;2023-06-10T04:20:54;98315.44;;;14.75;100.00
10474;BME280;5284;50.446;7.904;2023-06-10T04:26:00;98313.00;;;14.89;100.00
10474;BME280;5284;50.446;7.904;2023-06-10T04:31:03;98318.75;;;15.02;100.00
10474;BME280;5284;50.446;7.904;2023-06-10T04:36:07;98323.66;;;15.15;100.00
10474;BME280;5284;50.446;7.904;2023-06-10T04:41:12;98324.50;;;15.23;100.00
10474;BME280;5284;50.446;7.904;2023-06-10T04:46:15;98330.28;;;15.36;100.00
10474;BME280;5284;50.446;7.904;2023-06-10T04:51:18;98327.09;;;15.40;100.00
10474;BME280;5284;50.446;7.904;2023-06-10T04:56:23;98325.25;;;15.57;100.00
10474;BME280;5284;50.446;7.904;2023-06-10T05:01:26;98323.44;;;15.73;100.00
10474;BME280;5284;50.446;7.904;2023-06-10T05:06:29;98330.97;;;15.94;100.00
10474;BME280;5284;50.446;7.904;2023-06-10T05:11:34;98334.00;;;16.15;100.00
10474;BME280;5284;50.446;7.904;2023-06-10T05:16:37;98338.38;;;16.40;100.00
10474;BME280;5284;50.446;7.904;2023-06-10T05:21:42;98341.47;;;16.75;100.00
10474;BME280;5284;50.446;7.904;2023-06-10T05:26:46;98342.00;;;17.09;100.00
10474;BME280;5284;50.446;7.904;2023-06-10T05:31:50;98336.28;;;17.42;97.45
10474;BME280;5284;50.446;7.904;2023-06-10T05:36:53;98337.19;;;17.80;95.67
10474;BME280;5284;50.446;7.904;2023-06-10T05:41:57;98332.31;;;18.20;92.42
10474;BME280;5284;50.446;7.904;2023-06-10T05:47:01;98327.53;;;18.59;91.87
10474;BME280;5284;50.446;7.904;2023-06-10T05:52:04;98329.88;;;18.91;91.43
10474;BME280;5284;50.446;7.904;2023-06-10T05:57:09;98333.97;;;19.30;89.87
10474;BME280;5284;50.446;7.904;2023-06-10T06:02:12;98325.75;;;19.59;86.67
10474;BME280;5284;50.446;7.904;2023-06-10T06:07:15;98330.00;;;19.89;85.70
10474;BME280;5284;50.446;7.904;2023-06-10T06:12:19;98330.34;;;20.21;83.27
10474;BME280;5284;50.446;7.904;2023-06-10T06:17:22;98331.13;;;20.43;80.19
10474;BME280;5284;50.446;7.904;2023-06-10T06:22:25;98329.31;;;20.77;80.21
10474;BME280;5284;50.446;7.904;2023-06-10T06:27:30;98333.06;;;21.10;79.45
10474;BME280;5284;50.446;7.904;2023-06-10T06:32:33;98325.34;;;21.61;70.91
10474;BME280;5284;50.446;7.904;2023-06-10T06:37:36;98332.28;;;21.70;73.71
10474;BME280;5284;50.446;7.904;2023-06-10T06:42:58;98339.16;;;21.72;71.71
10474;BME280;5284;50.446;7.904;2023-06-10T06:48:19;98344.66;;;22.04;69.31
10474;BME280;5284;50.446;7.904;2023-06-10T06:53:23;98349.28;;;22.17;68.52
10474;BME280;5284;50.446;7.904;2023-06-10T06:58:27;98349.50;;;22.61;68.77
10474;BME280;5284;50.446;7.904;2023-06-10T07:03:30;98355.56;;;22.56;68.67
10474;BME280;5284;50.446;7.904;2023-06-10T07:08:33;98350.75;;;22.65;67.60
10474;BME280;5284;50.446;7.904;2023-06-10T07:13:38;98353.44;;;22.91;65.91
10474;BME280;5284;50.446;7.904;2023-06-10T07:18:40;98355.97;;;22.86;64.38
10474;BME280;5284;50.446;7.904;2023-06-10T07:23:43;98364.97;;;22.93;65.85
10474;BME280;5284;50.446;7.904;2023-06-10T07:28:48;98363.28;;;23.61;62.69
10474;BME280;5284;50.446;7.904;2023-06-10T07:33:51;98364.16;;;23.55;64.14
10474;BME280;5284;50.446;7.904;2023-06-10T07:38:54;98370.09;;;23.90;64.07
10474;BME280;5284;50.446;7.904;2023-06-10T07:43:58;98365.06;;;23.87;62.85
10474;BME280;5284;50.446;7.904;2023-06-10T07:49:02;98364.78;;;24.01;61.93
10474;BME280;5284;50.446;7.904;2023-06-10T07:54:05;98367.91;;;24.36;59.37
10474;BME280;5284;50.446;7.904;2023-06-10T07:59:09;98362.53;;;24.54;56.03
10474;BME280;5284;50.446;7.904;2023-06-10T08:04:12;98349.91;;;24.59;57.66
10474;BME280;5284;50.446;7.904;2023-06-10T08:09:15;98363.94;;;25.05;57.26
10474;BME280;5284;50.446;7.904;2023-06-10T08:14:21;98369.59;;;25.28;55.89
10474;BME280;5284;50.446;7.904;2023-06-10T08:19:24;98365.53;;;25.12;56.92
10474;BME280;5284;50.446;7.904;2023-06-10T08:24:27;98369.69;;;25.39;54.28
10474;BME280;5284;50.446;7.904;2023-06-10T08:29:32;98363.13;;;25.58;54.13
10474;BME280;5284;50.446;7.904;2023-06-10T08:34:35;98367.09;;;26.10;54.63
10474;BME280;5284;50.446;7.904;2023-06-10T08:39:38;98369.16;;;26.26;52.77
10474;BME280;5284;50.446;7.904;2023-06-10T08:44:43;98374.06;;;25.76;54.46
10474;BME280;5284;50.446;7.904;2023-06-10T08:49:48;98366.09;;;25.57;55.49
10474;BME280;5284;50.446;7.904;2023-06-10T08:54:56;98368.25;;;26.43;52.83
10474;BME280;5284;50.446;7.904;2023-06-10T09:00:00;98362.28;;;26.98;52.16
10474;BME280;5284;50.446;7.904;2023-06-10T09:05:05;98357.53;;;26.42;53.13
10474;BME280;5284;50.446;7.904;2023-06-10T09:10:09;98365.63;;;27.00;51.34
10474;BME280;5284;50.446;7.904;2023-06-10T09:15:14;98359.53;;;26.75;53.14
10474;BME280;5284;50.446;7.904;2023-06-10T09:20:19;98354.22;;;27.66;51.77
10474;BME280;5284;50.446;7.904;2023-06-10T09:25:34;98350.63;;;27.26;49.69
10474;BME280;5284;50.446;7.904;2023-06-10T09:30:39;98335.91;;;27.94;49.00
10474;BME280;5284;50.446;7.904;2023-06-10T09:35:46;98346.00;;;27.54;49.27
10474;BME280;5284;50.446;7.904;2023-06-10T09:40:50;98347.31;;;27.75;50.09
10474;BME280;5284;50.446;7.904;2023-06-10T09:45:57;98353.41;;;28.49;46.84
10474;BME280;5284;50.446;7.904;2023-06-10T09:50:59;98350.91;;;27.52;48.99
10474;BME280;5284;50.446;7.904;2023-06-10T09:56:03;98353.66;;;28.31;47.52
10474;BME280;5284;50.446;7.904;2023-06-10T10:01:12;98349.00;;;28.48;45.19
10474;BME280;5284;50.446;7.904;2023-06-10T10:06:17;98339.88;;;28.92;46.18
10474;BME280;5284;50.446;7.904;2023-06-10T10:11:21;98338.03;;;28.81;43.81
10474;BME280;5284;50.446;7.904;2023-06-10T10:16:36;98335.25;;;28.31;42.81
10474;BME280;5284;50.446;7.904;2023-06-10T10:21:44;98332.09;;;28.72;44.11
10474;BME280;5284;50.446;7.904;2023-06-10T10:26:53;98334.78;;;28.51;41.75
10474;BME280;5284;50.446;7.904;2023-06-10T10:32:01;98343.56;;;29.19;41.47
10474;BME280;5284;50.446;7.904;2023-06-10T10:37:05;98343.50;;;29.14;41.32
10474;BME280;5284;50.446;7.904;2023-06-10T10:42:08;98345.84;;;29.81;41.37
10474;BME280;5284;50.446;7.904;2023-06-10T10:47:13;98340.84;;;29.40;40.46
10474;BME280;5284;50.446;7.904;2023-06-10T10:52:17;98332.47;;;28.92;39.78
10474;BME280;5284;50.446;7.904;2023-06-10T10:57:22;98330.75;;;29.24;40.50
10474;BME280;5284;50.446;7.904;2023-06-10T11:02:37;98337.69;;;29.91;40.95
10474;BME280;5284;50.446;7.904;2023-06-10T11:07:52;98334.09;;;29.90;40.49
10474;BME280;5284;50.446;7.904;2023-06-10T11:12:57;98331.75;;;29.56;40.36
10474;BME280;5284;50.446;7.904;2023-06-10T11:18:23;98314.44;;;29.39;40.66
10474;BME280;5284;50.446;7.904;2023-06-10T11:23:48;98313.53;;;29.72;40.10
10474;BME280;5284;50.446;7.904;2023-06-10T11:29:08;98321.59;;;29.78;38.65
10474;BME280;5284;50.446;7.904;2023-06-10T11:34:13;98323.03;;;30.33;39.64
10474;BME280;5284;50.446;7.904;2023-06-10T11:39:17;98303.88;;;30.48;40.76
10474;BME280;5284;50.446;7.904;2023-06-10T11:44:20;98302.13;;;30.64;41.14
10474;BME280;5284;50.446;7.904;2023-06-10T11:49:25;98314.97;;;31.26;39.97
10474;BME280;5284;50.446;7.904;2023-06-10T11:54:28;98308.16;;;30.61;38.83
10474;BME280;5284;50.446;7.904;2023-06-10T11:59:30;98295.38;;;31.23;38.92
10474;BME280;5284;50.446;7.904;2023-06-10T12:04:35;98295.53;;;32.49;36.86
10474;BME280;5284;50.446;7.904;2023-06-10T12:09:38;98291.84;;;32.08;35.91
10474;BME280;5284;50.446;7.904;2023-06-10T12:14:54;98287.06;;;31.69;36.83
10474;BME280;5284;50.446;7.904;2023-06-10T12:20:00;98287.75;;;33.16;34.34
10474;BME280;5284;50.446;7.904;2023-06-10T12:25:06;98277.00;;;32.94;34.21
10474;BME280;5284;50.446;7.904;2023-06-10T12:30:10;98273.25;;;33.53;34.43
10474;BME280;5284;50.446;7.904;2023-06-10T12:35:17;98273.50;;;34.15;34.46
10474;BME280;5284;50.446;7.904;2023-06-10T12:40:25;98283.25;;;33.44;32.79
10474;BME280;5284;50.446;7.904;2023-06-10T12:45:30;98291.88;;;33.96;32.91
10474;BME280;5284;50.446;7.904;2023-06-10T12:50:35;98290.16;;;34.49;32.74
10474;BME280;5284;50.446;7.904;2023-06-10T12:55:38;98277.75;;;35.78;32.28
10474;BME280;5284;50.446;7.904;2023-06-10T13:00:41;98271.97;;;34.76;33.32
10474;BME280;5284;50.446;7.904;2023-06-10T13:05:46;98275.50;;;34.48;33.73
10474;BME280;5284;50.446;7.904;2023-06-10T13:10:48;98267.38;;;35.18;32.36
10474;BME280;5284;50.446;7.904;2023-06-10T13:15:52;98272.88;;;35.70;29.67
10474;BME280;5284;50.446;7.904;2023-06-10T13:20:56;98279.88;;;35.86;29.71
10474;BME280;5284;50.446;7.904;2023-06-10T13:25:59;98265.19;;;36.91;28.00
10474;BME280;5284;50.446;7.904;2023-06-10T13:31:04;98265.13;;;36.09;30.52
10474;BME280;5284;50.446;7.904;2023-06-10T13:36:10;98257.22;;;36.85;29.00
10474;BME280;5284;50.446;7.904;2023-06-10T13:41:13;98263.03;;;38.37;28.86
10474;BME280;5284;50.446;7.904;2023-06-10T13:46:16;98267.34;;;38.29;29.00
10474;BME280;5284;50.446;7.904;2023-06-10T13:51:21;98258.50;;;38.14;29.12
10474;BME280;5284;50.446;7.904;2023-06-10T13:56:24;98245.16;;;39.90;27.81
10474;BME280;5284;50.446;7.904;2023-06-10T14:01:27;98240.47;;;35.19;29.44
10474;BME280;5284;50.446;7.904;2023-06-10T14:06:31;98247.50;;;37.95;28.38
10474;BME280;5284;50.446;7.904;2023-06-10T14:11:35;98246.66;;;38.08;28.82
10474;BME280;5284;50.446;7.904;2023-06-10T14:16:38;98248.75;;;38.60;27.15
10474;BME280;5284;50.446;7.904;2023-06-10T14:21:45;98252.16;;;38.35;27.84
10474;BME280;5284;50.446;7.904;2023-06-10T14:26:48;98231.50;;;37.06;27.75
10474;BME280;5284;50.446;7.904;2023-06-10T14:31:51;98231.16;;;37.67;27.79
10474;BME280;5284;50.446;7.904;2023-06-10T14:36:55;98228.09;;;38.26;28.16
10474;BME280;5284;50.446;7.904;2023-06-10T14:41:58;98227.97;;;38.88;26.75
10474;BME280;5284;50.446;7.904;2023-06-10T14:47:01;98242.69;;;41.53;25.87
10474;BME280;5284;50.446;7.904;2023-06-10T14:52:06;98232.28;;;41.24;26.12
10474;BME280;5284;50.446;7.904;2023-06-10T14:57:09;98222.19;;;40.43;26.22
10474;BME280;5284;50.446;7.904;2023-06-10T15:02:12;98232.91;;;41.96;25.36
10474;BME280;5284;50.446;7.904;2023-06-10T15:07:16;98230.09;;;41.67;25.35
10474;BME280;5284;50.446;7.904;2023-06-10T15:12:19;98224.72;;;41.08;25.61
10474;BME280;5284;50.446;7.904;2023-06-10T15:17:22;98222.63;;;43.26;24.67
10474;BME280;5284;50.446;7.904;2023-06-10T15:22:26;98220.56;;;41.22;24.75
10474;BME280;5284;50.446;7.904;2023-06-10T15:27:30;98223.97;;;42.96;24.72
10474;BME280;5284;50.446;7.904;2023-06-10T15:32:32;98210.31;;;40.63;25.74
10474;BME280;5284;50.446;7.904;2023-06-10T15:37:37;98206.38;;;40.47;25.66
10474;BME280;5284;50.446;7.904;2023-06-10T15:42:40;98206.13;;;41.03;25.68
10474;BME280;5284;50.446;7.904;2023-06-10T15:47:43;98211.69;;;43.13;24.09
10474;BME280;5284;50.446;7.904;2023-06-10T15:52:48;98202.63;;;43.99;23.60
10474;BME280;5284;50.446;7.904;2023-06-10T15:57:51;98210.81;;;44.99;22.99
10474;BME280;5284;50.446;7.904;2023-06-10T16:02:53;98195.75;;;42.40;24.64
10474;BME280;5284;50.446;7.904;2023-06-10T16:07:58;98194.09;;;42.59;24.33
10474;BME280;5284;50.446;7.904;2023-06-10T16:13:03;98195.38;;;43.74;23.11
10474;BME280;5284;50.446;7.904;2023-06-10T16:18:07;98180.84;;;42.80;24.19
10474;BME280;5284;50.446;7.904;2023-06-10T16:23:11;98195.38;;;44.65;23.57
10474;BME280;5284;50.446;7.904;2023-06-10T16:28:14;98192.00;;;42.89;24.57
10474;BME280;5284;50.446;7.904;2023-06-10T16:33:17;98186.13;;;43.74;23.96
10474;BME280;5284;50.446;7.904;2023-06-10T16:38:21;98189.13;;;44.44;23.19
10474;BME280;5284;50.446;7.904;2023-06-10T16:43:24;98198.16;;;42.82;24.06
10474;BME280;5284;50.446;7.904;2023-06-10T16:48:28;98207.19;;;44.98;22.77
10474;BME280;5284;50.446;7.904;2023-06-10T16:53:32;98203.28;;;42.27;24.49
10474;BME280;5284;50.446;7.904;2023-06-10T16:58:35;98196.69;;;41.54;25.16
10474;BME280;5284;50.446;7.904;2023-06-10T17:03:38;98208.34;;;42.54;24.72
10474;BME280;5284;50.446;7.904;2023-06-10T17:08:43;98207.78;;;43.26;24.24
10474;BME280;5284;50.446;7.904;2023-06-10T17:13:46;98217.06;;;43.06;24.62
10474;BME280;5284;50.446;7.904;2023-06-10T17:18:49;98219.72;;;42.17;24.89
10474;BME280;5284;50.446;7.904;2023-06-10T17:23:53;98211.78;;;40.61;26.24
10474;BME280;5284;50.446;7.904;2023-06-10T17:28:56;98218.00;;;39.90;27.34
10474;BME280;5284;50.446;7.904;2023-06-10T17:33:59;98216.09;;;40.58;26.36
10474;BME280;5284;50.446;7.904;2023-06-10T17:39:03;98203.91;;;38.56;27.70
10474;BME280;5284;50.446;7.904;2023-06-10T17:44:06;98207.38;;;35.46;31.25
10474;BME280;5284;50.446;7.904;2023-06-10T17:49:09;98205.97;;;32.65;34.52
10474;BME280;5284;50.446;7.904;2023-06-10T17:54:13;98211.13;;;31.61;36.24
10474;BME280;5284;50.446;7.904;2023-06-10T17:59:17;98212.13;;;30.79;38.11
10474;BME280;5284;50.446;7.904;2023-06-10T18:04:19;98219.56;;;29.85;39.54
10474;BME280;5284;50.446;7.904;2023-06-10T18:09:24;98221.50;;;29.15;41.12
10474;BME280;5284;50.446;7.904;2023-06-10T18:14:27;98221.81;;;29.40;41.29
10474;BME280;5284;50.446;7.904;2023-06-10T18:19:30;98221.91;;;28.85;42.19
10474;BME280;5284;50.446;7.904;2023-06-10T18:24:34;98225.75;;;28.46;42.88
10474;BME280;5284;50.446;7.904;2023-06-10T18:29:38;98220.88;;;28.04;43.65
10474;BME280;5284;50.446;7.904;2023-06-10T18:34:40;98224.22;;;30.42;40.06
10474;BME280;5284;50.446;7.904;2023-06-10T18:39:45;98236.38;;;30.77;39.70
10474;BME280;5284;50.446;7.904;2023-06-10T18:44:48;98242.06;;;31.07;40.11
10474;BME280;5284;50.446;7.904;2023-06-10T18:49:52;98240.50;;;28.78;43.67
10474;BME280;5284;50.446;7.904;2023-06-10T18:54:56;98247.22;;;28.33;44.08
10474;BME280;5284;50.446;7.904;2023-06-10T18:59:59;98250.88;;;27.66;46.01
10474;BME280;5284;50.446;7.904;2023-06-10T19:05:02;98253.44;;;27.17;46.85
10474;BME280;5284;50.446;7.904;2023-06-10T19:10:11;98259.19;;;26.69;48.39
10474;BME280;5284;50.446;7.904;2023-06-10T19:15:14;98266.41;;;26.18;50.51
10474;BME280;5284;50.446;7.904;2023-06-10T19:20:17;98277.16;;;25.90;50.67
10474;BME280;5284;50.446;7.904;2023-06-10T19:25:22;98282.00;;;25.59;53.04
10474;BME280;5284;50.446;7.904;2023-06-10T19:30:25;98288.03;;;25.31;54.52
10474;BME280;5284;50.446;7.904;2023-06-10T19:35:27;98294.94;;;24.98;55.60
10474;BME280;5284;50.446;7.904;2023-06-10T19:40:31;98307.56;;;24.92;56.53
10474;BME280;5284;50.446;7.904;2023-06-10T19:45:34;98302.56;;;24.72;56.89
10474;BME280;5284;50.446;7.904;2023-06-10T19:50:37;98310.94;;;24.52;57.91
10474;BME280;5284;50.446;7.904;2023-06-10T19:55:42;98308.72;;;24.36;58.64
10474;BME280;5284;50.446;7.904;2023-06-10T20:00:45;98310.81;;;24.16;60.42
10474;BME280;5284;50.446;7.904;2023-06-10T20:05:48;98314.47;;;24.04;61.02
10474;BME280;5284;50.446;7.904;2023-06-10T20:10:52;98314.75;;;23.89;61.59
10474;BME280;5284;50.446;7.904;2023-06-10T20:15:55;98326.75;;;23.75;62.61
10474;BME280;5284;50.446;7.904;2023-06-10T20:20:58;98321.66;;;23.54;64.75
10474;BME280;5284;50.446;7.904;2023-06-10T20:26:02;98329.28;;;23.33;66.00
10474;BME280;5284;50.446;7.904;2023-06-10T20:31:05;98328.31;;;23.15;66.61
10474;BME280;5284;50.446;7.904;2023-06-10T20:36:08;98337.94;;;23.11;67.30
10474;BME280;5284;50.446;7.904;2023-06-10T20:41:12;98338.56;;;23.06;66.97
10474;BME280;5284;50.446;7.904;2023-06-10T20:46:15;98345.91;;;22.93;66.97
10474;BME280;5284;50.446;7.904;2023-06-10T20:51:18;98345.72;;;22.81;69.30
10474;BME280;5284;50.446;7.904;2023-06-10T20:56:23;98353.69;;;22.70;70.44
10474;BME280;5284;50.446;7.904;2023-06-10T21:01:26;98352.25;;;22.61;71.17
10474;BME280;5284;50.446;7.904;2023-06-10T21:06:29;98354.53;;;22.57;71.44
10474;BME280;5284;50.446;7.904;2023-06-10T21:11:33;98360.19;;;22.49;72.57
10474;BME280;5284;50.446;7.904;2023-06-10T21:16:36;98359.34;;;22.42;72.83
10474;BME280;5284;50.446;7.904;2023-06-10T21:21:40;98364.34;;;22.32;72.81
10474;BME280;5284;50.446;7.904;2023-06-10T21:26:44;98367.25;;;22.24;72.83
10474;BME280;5284;50.446;7.904;2023-06-10T21:31:48;98363.72;;;22.24;73.37
10474;BME280;5284;50.446;7.904;2023-06-10T21:36:51;98365.78;;;22.15;73.36
10474;BME280;5284;50.446;7.904;2023-06-10T21:41:55;98365.13;;;22.07;74.68
10474;BME280;5284;50.446;7.904;2023-06-10T21:46:58;98364.91;;;22.02;74.29
10474;BME280;5284;50.446;7.904;2023-06-10T21:52:01;98367.41;;;21.90;75.93
10474;BME280;5284;50.446;7.904;2023-06-10T21:57:05;98375.53;;;21.77;77.83
10474;BME280;5284;50.446;7.904;2023-06-10T22:02:09;98378.97;;;21.59;78.76
10474;BME280;5284;50.446;7.904;2023-06-10T22:07:12;98378.97;;;21.52;79.23
10474;BME280;5284;50.446;7.904;2023-06-10T22:12:16;98375.56;;;21.44;78.90
10474;BME280;5284;50.446;7.904;2023-06-10T22:17:19;98382.22;;;21.35;79.27
10474;BME280;5284;50.446;7.904;2023-06-10T22:22:22;98383.91;;;21.42;79.29
10474;BME280;5284;50.446;7.904;2023-06-10T22:27:27;98387.66;;;21.41;78.84
10474;BME280;5284;50.446;7.904;2023-06-10T22:32:30;98380.78;;;21.39;80.32
10474;BME280;5284;50.446;7.904;2023-06-10T22:37:34;98383.28;;;21.40;79.81
10474;BME280;5284;50.446;7.904;2023-06-10T22:42:38;98378.28;;;21.44;79.87
10474;BME280;5284;50.446;7.904;2023-06-10T22:47:41;98388.78;;;21.53;78.85
10474;BME280;5284;50.446;7.904;2023-06-10T22:52:44;98383.34;;;21.53;79.18
10474;BME280;5284;50.446;7.904;2023-06-10T22:57:52;98393.81;;;21.56;79.01
10474;BME280;5284;50.446;7.904;2023-06-10T23:02:56;98391.50;;;21.53;79.85
10474;BME280;5284;50.446;7.904;2023-06-10T23:07:59;98395.03;;;21.54;80.97
10474;BME280;5284;50.446;7.904;2023-06-10T23:13:03;98402.34;;;21.53;80.62
10474;BME280;5284;50.446;7.904;2023-06-10T23:18:07;98405.25;;;21.45;81.80
10474;BME280;5284;50.446;7.904;2023-06-10T23:23:11;98399.56;;;21.40;82.37
10474;BME280;5284;50.446;7.904;2023-06-10T23:28:16;98413.94;;;21.28;82.82
10474;BME280;5284;50.446;7.904;2023-06-10T23:33:19;98406.72;;;21.14;83.94
10474;BME280;5284;50.446;7.904;2023-06-10T23:38:22;98412.50;;;21.04;84.40
10474;BME280;5284;50.446;7.904;2023-06-10T23:43:26;98415.59;;;20.95;84.84
10474;BME280;5284;50.446;7.904;2023-06-10T23:48:29;98408.03;;;20.90;85.29
10474;BME280;5284;50.446;7.904;2023-06-10T23:53:33;98411.47;;;20.78;86.38
10474;BME280;5284;50.446;7.904;2023-06-10T23:58:37;98415.69;;;20.59;87.40
